Buffalo, IN (47925)

1:51 AM EDT on June 30, 2015 (GMT -0400)
Bluewater Drive | | Change Station
CLOSE
Current Station
Personal Weather Station
Location: Monticello, IN
Elevation: 623 ft
Nearby Weather Stations

Elev 623 ft 40.76 °N, 86.75 °W | Updated 15 minutes ago

Overcast
Overcast
66.6 °F
Feels Like 66.6 °F
N
0.0
Wind Variable Wind from SE

Today
High -- | Low -- °F
--% Chance of Precip.
Yesterday
High -- | Low -- °F
Precip. -- in
6:18 AM 9:22 PM
Waxing Gibbous, 96% visible
Pressure 29.84 in
Visibility 5.0 miles
Clouds Overcast 1600 ft
Dew Point 66 °F
Humidity 98%
Rainfall in
Snow Depth Not available.
UV 0 out of 12
Pollen .50 out of 12
Air Quality Not available.
Flu Activity No Activity
METAR KGGP 300535Z AUTO 00000KT 5SM BR OVC016 16/15 A2984 RMK AO2

More Conditions Fewer Conditions

Pressure 29.84 in
Visibility 5.0 miles
Clouds Overcast 1600 ft
Dew Point 66 °F
Humidity 98%
Rainfall in
Snow Depth Not available.
UV 0 out of 12
Pollen .50 out of 12
Air Quality Not available.
Flu Activity No Activity
METAR KGGP 300535Z AUTO 00000KT 5SM BR OVC016 16/15 A2984 RMK AO2

More Conditions Fewer Conditions

10-Day Weather Forecast

×

Almanac

Astronomy

Jun. 30, 2015 Rise Set
Actual Time
Civil Twilight
Nautical Twilight
Astronomical Twilight
Moon
Length of Visible Light
Length of Day
Tomorrow will be .
, % of the Moon is Illuminated

Today's Extremes

State Highs State Lows

Community

WunderPhotos

Upload Photos

1,833,970 photos uploaded!

WunderBlogs® & News

Nearby

Air Quality

  Air Quality AQ Index Pollutant
Not available.

Snow Depth

Station Depth Elevation

Earthquake Activity

City Distance Mag. Time & Date
Minimum magnitude displayed is 2.5.

Coastal Water Temperatures

Place Temperature

Stations

Nearby Weather Stations

Station Location Temp. Windchill Dew Point Humidity Wind Precip. Elev Updated Type